createdAt,value
2023-03-25T00:04:05.214Z,6.78
2023-03-25T00:14:12.416Z,6.67
2023-03-25T00:24:18.342Z,6.60
2023-03-25T00:34:24.204Z,6.57
2023-03-25T00:44:29.951Z,6.42
2023-03-25T00:54:36.045Z,6.25
2023-03-25T01:04:42.791Z,6.10
2023-03-25T01:14:49.156Z,6.03
2023-03-25T01:24:55.556Z,6.04
2023-03-25T01:35:01.304Z,5.98
2023-03-25T01:45:22.231Z,5.79
2023-03-25T01:55:28.580Z,5.79
2023-03-25T02:05:43.208Z,5.83
2023-03-25T02:16:02.244Z,5.77
2023-03-25T02:26:32.652Z,5.54
2023-03-25T02:36:57.657Z,5.30
2023-03-25T02:47:06.475Z,5.13
2023-03-25T02:57:16.205Z,5.11
2023-03-25T03:07:27.488Z,5.12
2023-03-25T03:17:44.137Z,5.11
2023-03-25T03:27:57.214Z,5.08
2023-03-25T03:38:09.624Z,5.05
2023-03-25T03:48:18.698Z,5.01
2023-03-25T03:58:30.372Z,4.89
2023-03-25T04:08:47.087Z,4.89
2023-03-25T04:18:53.619Z,4.89
2023-03-25T04:29:00.678Z,4.85
2023-03-25T04:39:07.394Z,4.70
2023-03-25T04:49:21.388Z,4.56
2023-03-25T04:59:28.384Z,4.57
2023-03-25T05:09:33.972Z,4.72
2023-03-25T05:19:43.766Z,5.02
2023-03-25T05:29:49.880Z,5.30
2023-03-25T05:39:56.600Z,5.59
2023-03-25T05:50:02.288Z,5.99
2023-03-25T06:00:12.912Z,8.00
2023-03-25T06:10:20.070Z,11.26
2023-03-25T06:20:25.746Z,18.68
2023-03-25T06:30:31.664Z,21.11
2023-03-25T06:40:38.090Z,23.36
2023-03-25T06:50:45.562Z,22.07
2023-03-25T07:00:54.786Z,20.01
2023-03-25T07:11:05.451Z,18.47
2023-03-25T07:21:11.329Z,16.21
2023-03-25T07:31:18.187Z,15.02
2023-03-25T07:41:23.872Z,17.91
2023-03-25T07:51:30.297Z,18.63
2023-03-25T08:01:36.000Z,25.03
2023-03-25T08:11:40.595Z,28.67
2023-03-25T08:21:46.231Z,30.82
2023-03-25T08:31:52.574Z,28.74
2023-03-25T08:41:59.215Z,28.71
2023-03-25T08:52:08.567Z,23.85
2023-03-25T09:02:15.131Z,19.77
2023-03-25T09:12:20.853Z,18.83
2023-03-25T09:22:27.001Z,19.75
2023-03-25T09:32:33.052Z,18.71
2023-03-25T09:42:46.497Z,17.04
2023-03-25T09:52:58.976Z,15.76
2023-03-25T10:03:14.071Z,14.49
2023-03-25T10:13:28.613Z,14.46
2023-03-25T10:23:39.531Z,15.16
2023-03-25T10:33:51.684Z,15.78
2023-03-25T10:43:57.443Z,15.70
2023-03-25T10:54:03.528Z,13.82
2023-03-25T11:04:13.151Z,11.72
2023-03-25T11:14:23.073Z,11.26
2023-03-25T11:24:35.332Z,12.23
2023-03-25T11:34:42.883Z,13.26
2023-03-25T11:44:52.859Z,13.23
2023-03-25T11:54:59.412Z,13.59
2023-03-25T12:05:12.827Z,13.65
2023-03-25T12:15:34.143Z,13.77
2023-03-25T12:25:55.417Z,13.69
2023-03-25T12:36:18.246Z,13.54
2023-03-25T12:46:40.537Z,13.26
2023-03-25T12:56:55.545Z,13.04
2023-03-25T13:07:05.462Z,12.76
2023-03-25T13:17:22.822Z,11.16
2023-03-25T13:27:34.254Z,10.13
2023-03-25T13:37:44.322Z,9.59
2023-03-25T13:47:54.661Z,10.20
2023-03-25T13:58:35.056Z,11.27
2023-03-25T14:09:09.494Z,11.34
2023-03-25T14:19:21.174Z,10.90
2023-03-25T14:29:37.521Z,10.65
2023-03-25T14:39:44.869Z,10.97
2023-03-25T14:49:54.669Z,11.18
2023-03-25T15:00:10.005Z,11.30
2023-03-25T15:10:31.201Z,11.51
2023-03-25T15:20:37.604Z,11.47
2023-03-25T15:31:14.029Z,11.30
2023-03-25T15:41:34.275Z,11.18
2023-03-25T15:52:06.219Z,11.01
2023-03-25T16:02:26.653Z,10.92
2023-03-25T16:12:32.456Z,10.71
2023-03-25T16:22:38.671Z,10.81
2023-03-25T16:32:44.526Z,11.23
2023-03-25T16:42:50.828Z,10.83
2023-03-25T16:53:02.568Z,10.26
2023-03-25T17:03:15.280Z,9.81
2023-03-25T17:13:25.990Z,9.49
2023-03-25T17:23:44.458Z,9.11
2023-03-25T17:33:55.483Z,8.65
2023-03-25T17:44:01.746Z,8.20
2023-03-25T17:54:07.807Z,7.83
2023-03-25T18:04:15.389Z,7.46
2023-03-25T18:14:22.300Z,7.10
2023-03-25T18:24:28.187Z,6.70
2023-03-25T18:34:34.622Z,6.31
2023-03-25T18:44:42.153Z,6.09
2023-03-25T18:54:47.904Z,6.00
2023-03-25T19:05:00.772Z,5.84
2023-03-25T19:15:09.060Z,5.66
2023-03-25T19:25:15.605Z,5.58
2023-03-25T19:35:23.822Z,5.44
2023-03-25T19:45:34.078Z,5.29
2023-03-25T19:55:42.895Z,5.12
2023-03-25T20:05:49.055Z,4.96
2023-03-25T20:15:55.474Z,4.89
2023-03-25T20:26:01.503Z,4.81
2023-03-25T20:36:08.909Z,4.72
2023-03-25T20:46:15.540Z,4.66
2023-03-25T20:56:21.774Z,4.57
2023-03-25T21:06:28.581Z,4.39
2023-03-25T21:16:35.421Z,4.15
2023-03-25T21:26:41.330Z,3.90
2023-03-25T21:36:47.090Z,3.85
2023-03-25T21:46:54.391Z,4.08
2023-03-25T21:57:04.589Z,4.36
2023-03-25T22:07:11.141Z,4.65
2023-03-25T22:17:16.888Z,4.85
2023-03-25T22:27:22.663Z,5.07
2023-03-25T22:37:28.458Z,5.36
2023-03-25T22:47:34.505Z,5.50
2023-03-25T22:57:40.874Z,5.51
2023-03-25T23:07:46.574Z,5.51
2023-03-25T23:17:52.546Z,5.51
2023-03-25T23:27:59.073Z,5.46
2023-03-25T23:38:05.000Z,5.47
2023-03-25T23:48:12.650Z,5.48
2023-03-25T23:58:18.898Z,5.44
